TimeMDT,TemperatureF,Dew PointF,Humidity,Sea Level PressureIn,VisibilityMPH,Wind Direction,Wind SpeedMPH,Gust SpeedMPH,PrecipitationIn,Events,Conditions,WindDirDegrees,DateUTC
12:53 AM,77.0,37.0,24,29.86,10.0,ESE,5.8,-,N/A,,Clear,110,2013-06-29 06:53:00
1:53 AM,78.1,36.0,22,29.86,10.0,East,10.4,-,N/A,,Clear,90,2013-06-29 07:53:00
2:53 AM,79.0,37.0,22,29.86,10.0,ESE,15.0,-,N/A,,Clear,110,2013-06-29 08:53:00
3:53 AM,75.9,37.9,25,29.87,10.0,SE,10.4,-,N/A,,Clear,130,2013-06-29 09:53:00
4:53 AM,77.0,39.0,25,29.88,10.0,SE,16.1,-,N/A,,Clear,130,2013-06-29 10:53:00
5:53 AM,72.0,39.0,30,29.90,10.0,ESE,8.1,-,N/A,,Clear,110,2013-06-29 11:53:00
6:53 AM,73.9,39.9,29,29.91,10.0,ESE,16.1,-,N/A,,Clear,110,2013-06-29 12:53:00
7:53 AM,79.0,41.0,26,29.90,10.0,ESE,18.4,-,N/A,,Clear,110,2013-06-29 13:53:00
8:53 AM,82.9,39.9,22,29.91,10.0,ESE,17.3,-,N/A,,Clear,110,2013-06-29 14:53:00
9:53 AM,86.0,39.9,20,29.90,10.0,ESE,15.0,-,N/A,,Clear,120,2013-06-29 15:53:00
10:53 AM,89.1,39.9,18,29.90,10.0,SE,9.2,-,N/A,,Clear,140,2013-06-29 16:53:00
11:53 AM,91.9,39.0,16,29.88,10.0,Calm,Calm,-,N/A,,Clear,0,2013-06-29 17:53:00
12:53 PM,95.0,37.9,14,29.86,10.0,West,4.6,-,N/A,,Clear,260,2013-06-29 18:53:00
1:53 PM,97.0,37.9,13,29.80,10.0,WNW,9.2,-,N/A,,Clear,300,2013-06-29 19:53:00
2:53 PM,98.1,37.9,12,29.76,10.0,Calm,Calm,-,N/A,,Clear,0,2013-06-29 20:53:00
3:41 PM,98.6,32.0,10,30.01,10.0,NNE,9.2,25.3,N/A,,Clear,20,2013-06-29 21:41:00
3:53 PM,100.0,33.1,10,29.75,10.0,NE,16.1,-,N/A,,Clear,50,2013-06-29 21:53:00
4:10 PM,98.6,33.8,10,30.01,10.0,NE,12.7,-,N/A,,Clear,40,2013-06-29 22:10:00
4:53 PM,95.0,33.1,11,29.75,10.0,NNE,17.3,28.8,0.00,,Mostly Cloudy,20,2013-06-29 22:53:00
5:53 PM,91.9,37.0,15,29.77,10.0,NE,27.6,46.0,0.00,Rain,Light Rain,50,2013-06-29 23:53:00
6:53 PM,91.9,36.0,14,29.76,10.0,North,9.2,-,0.00,,Mostly Cloudy,10,2013-06-30 00:53:00
7:53 PM,86.0,42.1,21,29.79,10.0,West,12.7,20.7,N/A,,Mostly Cloudy,280,2013-06-30 01:53:00
8:53 PM,82.9,42.1,24,29.78,10.0,WNW,5.8,-,N/A,,Mostly Cloudy,300,2013-06-30 02:53:00
9:53 PM,81.0,39.0,22,29.81,10.0,NNW,5.8,-,N/A,,Clear,340,2013-06-30 03:53:00
10:53 PM,82.0,37.9,21,29.83,10.0,ENE,8.1,-,N/A,,Clear,60,2013-06-30 04:53:00
11:53 PM,81.0,39.9,23,29.84,10.0,Calm,Calm,-,N/A,,Clear,0,2013-06-30 05:53:00